Cleveland, Ohio
Traffic Map
Current Weather Conditions
Cleveland, Ohio
Overcast
Overcast
68°
Feels Like: 68°
Wind Chill: 68° Ceiling: 1300
Heat Index: 68° Visibility: 10mi
Dew Point: 65° Wind: 15mph
Humidity: 90% Direction: 160° (SSE)
Pressure: 30.04in Gusts: 0mph
Raw Report DataKBKL 251308Z 16013KT 10SM BKN013 OVC019 20/18 A3004 RMK AO2 T02000183
Traffic Incident Summary
Active as of:
Severity:
Category:
InformationThere was an issue retrieving the traffic information for this location. Please try a different location or try again shortly.
Advertisements